Latest Weather Observations for Degrussa Aerodrome

IDW60801

Issued at 10:13 pm WST Sunday 20 May 2018 (issued every 10 minutes, with the page automatically refreshed every 10 minutes)

About weather observations | Map of weather stations | Latest weather observations for WA | Other Formats
Station Details ID: 507500 Name: DEGRUSSA AERODROME Lat: -25.56 Lon: 119.29 Height: 550.91 m
Data from the previous 72 hours. | See also: Recent months for locations in Western Australia
Date/Time
WST
Temp
°C
App
Temp
°C
Dew
Point
°C
Rel
Hum
%
Delta-T
°C
Wind Press
QNH
hPa
Press
MSL
hPa
Rain since
9am
mm
Dir  Spd
km/h
Gust
km/h
Spd
kts
Gust
kts
20/10:00pm 15.1 10.1 -4.2 26 7.7 ESE 13 17 7 9 1025.3 1023.7 0.0
20/09:30pm 15.7 10.3 -4.2 25 8.0 ESE 15 19 8 10 1025.3 1023.7 0.0
20/09:00pm 16.1 11.1 -3.9 25 8.1 ESE 13 17 7 9 1025.4 1023.8 0.0
20/08:30pm 16.6 11.6 -4.0 24 8.4 ESE 13 17 7 9 1025.1 1023.5 0.0
20/08:00pm 16.8 11.7 -5.0 22 8.6 ESE 13 17 7 9 1025.0 1023.4 0.0
20/07:30pm 17.7 13.0 -4.9 21 9.1 ESE 11 13 6 7 1024.6 1023.0 0.0
20/07:00pm 18.5 13.4 -5.5 19 9.6 ESE 13 17 7 9 1024.2 1022.6 0.0
20/06:30pm 18.9 14.2 -5.2 19 9.8 ESE 11 13 6 7 1024.0 1022.4 0.0
20/06:00pm 20.4 15.7 -5.4 17 10.5 E 11 17 6 9 1023.5 1021.9 0.0
20/05:30pm 21.5 15.9 -6.2 15 11.3 E 15 24 8 13 1023.2 1021.5 0.0
20/05:00pm 22.5 14.8 -6.3 14 11.8 ESE 26 37 14 20 1022.6 1021.0 0.0
20/04:30pm 23.1 15.8 -5.8 14 12.1 ESE 24 33 13 18 1022.5 1020.9 0.0
20/04:00pm 23.4 15.8 -5.6 14 12.1 ESE 26 35 14 19 1022.4 1020.8 0.0
20/03:30pm 23.7 17.5 -5.3 14 12.3 E 19 30 10 16 1022.4 1020.8 0.0
20/03:00pm 23.3 16.1 -5.7 14 12.1 ESE 24 33 13 18 1022.4 1020.8 0.0
20/02:30pm 23.5 17.0 -5.5 14 12.2 ESE 20 33 11 18 1022.5 1020.9 0.0
20/02:00pm 23.5 17.3 -4.6 15 12.0 E 19 32 10 17 1022.7 1021.1 0.0
20/01:30pm 22.4 15.9 -5.5 15 11.6 E 20 30 11 16 1023.1 1021.4 0.0
20/01:00pm 22.3 15.9 -4.7 16 11.4 E 20 35 11 19 1023.6 1022.0 0.0
20/12:30pm 21.1 14.9 -3.4 19 10.5 E 20 32 11 17 1024.1 1022.5 0.0
20/12:00pm 20.5 13.5 -3.9 19 10.3 E 24 32 13 17 1024.6 1023.0 0.0
20/11:30am 20.1 13.0 -4.2 19 10.2 E 24 35 13 19 1025.1 1023.5 0.0
20/11:00am 19.1 12.2 -2.5 23 9.2 E 24 35 13 19 1025.6 1024.0 0.0
20/10:30am 18.4 10.8 -2.5 24 8.9 E 28 35 15 19 1026.1 1024.5 0.0
20/10:00am 17.8 10.7 -1.4 27 8.3 ENE 26 35 14 19 1026.4 1024.8 0.0
20/09:30am 16.8 9.7 -1.3 29 7.8 ENE 26 35 14 19 1026.5 1025.0 0.0
20/09:00am 15.7 9.4 -0.9 32 7.1 ENE 22 33 12 18 1026.6 1025.1 0.0
20/08:30am 14.3 8.4 -0.9 35 6.5 E 20 30 11 16 1026.5 1025.0 0.0
20/08:00am 12.9 7.2 -1.1 38 5.8 E 19 30 10 16 1026.4 1024.8 0.0
20/07:30am 11.5 6.9 -0.9 42 5.1 E 13 19 7 10 1026.2 1024.6 0.0
20/07:00am 10.7 6.4 -1.4 43 4.9 E 11 17 6 9 1026.0 1024.4 0.0
20/06:30am 10.7 6.1 -1.4 43 4.9 ESE 13 20 7 11 1025.6 1024.0 0.0
20/06:00am 11.1 6.5 -1.3 42 5.0 E 13 20 7 11 1025.3 1023.7 0.0
20/05:30am 11.3 6.6 -1.5 41 5.2 ESE 13 19 7 10 1025.2 1023.6 0.0
20/05:00am 11.6 6.9 -1.9 39 5.4 ESE 13 19 7 10 1025.1 1023.5 0.0
20/04:30am 12.1 6.6 -1.8 38 5.7 ESE 17 22 9 12 1024.7 1023.1 0.0
20/04:00am 12.5 7.4 -1.8 37 5.8 ESE 15 22 8 12 1024.9 1023.2 0.0
20/03:30am 13.0 7.5 -2.1 35 6.2 ESE 17 26 9 14 1024.9 1023.2 0.0
20/03:00am 13.5 7.6 -2.0 34 6.3 E 19 26 10 14 1024.7 1023.1 0.0
20/02:30am 13.6 8.1 -1.9 34 6.4 ESE 17 26 9 14 1024.6 1023.0 0.0
20/02:00am 12.9 8.0 -3.0 33 6.3 ESE 13 17 7 9 1024.6 1023.0 0.0
20/01:30am 13.1 8.6 -3.6 31 6.6 ESE 11 17 6 9 1024.7 1023.1 0.0
20/01:00am 13.6 8.3 -3.6 30 6.8 ESE 15 20 8 11 1024.5 1022.9 0.0
20/12:30am 14.0 7.9 -4.2 28 7.2 ESE 19 26 10 14 1024.4 1022.8 0.0
20/12:00am 14.2 8.4 -4.5 27 7.3 ESE 17 22 9 12 1024.2 1022.6 0.0
 
Date/Time
WST
Temp
°C
App
Temp
°C
Dew
Point
°C
Rel
Hum
%
Delta-T
°C
Wind Press
QNH
hPa
Press
MSL
hPa
Rain since
9am
mm
Dir  Spd
km/h
Gust
km/h
Spd
kts
Gust
kts
19/11:30pm 14.4 9.4 -4.3 27 7.4 ESE 13 19 7 10 1024.1 1022.5 0.0
19/11:00pm 14.2 9.6 -4.5 27 7.3 ESE 11 17 6 9 1024.1 1022.5 0.0
19/10:30pm 15.0 9.9 -4.8 25 7.8 SE 13 17 7 9 1024.1 1022.5 0.0
19/10:00pm 15.8 10.8 -4.7 24 8.1 ESE 13 17 7 9 1024.2 1022.6 0.0
19/09:30pm 16.4 11.0 -4.8 23 8.5 ESE 15 19 8 10 1024.1 1022.5 0.0
19/09:00pm 17.0 11.2 -4.8 22 8.7 ESE 17 20 9 11 1024.1 1022.5 0.0
19/08:30pm 17.0 12.0 -4.3 23 8.6 SE 13 17 7 9 1023.9 1022.3 0.0
19/08:00pm 17.2 12.5 -4.7 22 8.8 SE 11 17 6 9 1023.7 1022.1 0.0
19/07:30pm 18.0 13.3 -5.3 20 9.4 SE 11 13 6 7 1023.4 1021.8 0.0
19/07:00pm 19.3 14.2 -4.9 19 9.9 ESE 13 15 7 8 1023.0 1021.3 0.0
19/06:30pm 20.3 15.2 -4.8 18 10.4 ESE 13 19 7 10 1022.7 1021.1 0.0
19/06:00pm 21.2 15.4 -4.8 17 10.8 ESE 17 26 9 14 1022.6 1021.0 0.0
19/05:30pm 22.0 16.3 -4.1 17 11.2 ESE 17 26 9 14 1022.3 1020.7 0.0
19/05:00pm 23.0 15.8 -5.0 15 11.8 ESE 24 32 13 17 1021.9 1020.3 0.0
19/04:30pm 23.5 16.8 -4.6 15 12.1 E 22 30 12 16 1021.7 1020.0 0.0
19/04:00pm 24.0 17.7 -4.2 15 12.2 E 20 32 11 17 1021.6 1019.9 0.0
19/03:30pm 24.2 17.4 -4.9 14 12.5 ESE 22 32 12 17 1021.6 1019.9 0.0
19/03:00pm 24.1 17.3 -5.0 14 12.4 E 22 35 12 19 1021.7 1020.0 0.0
19/02:30pm 23.7 18.0 -3.6 16 12.0 E 17 30 9 16 1021.7 1020.0 0.0
19/02:00pm 23.9 17.9 -3.4 16 12.0 E 19 28 10 15 1021.8 1020.2 0.0
19/01:30pm 23.3 17.2 -3.9 16 11.8 ESE 19 26 10 14 1022.0 1020.4 0.0
19/01:00pm 22.8 17.6 -2.7 18 11.2 E 15 26 8 14 1022.5 1020.9 0.0
19/12:30pm 22.5 16.6 -2.2 19 11.0 ENE 19 24 10 13 1022.9 1021.2 0.0
19/12:00pm 21.6 16.1 -2.3 20 10.5 ENE 17 28 9 15 1023.4 1021.8 0.0
19/11:30am 21.0 15.6 -1.5 22 10.0 ENE 17 26 9 14 1024.0 1022.4 0.0
19/11:00am 19.4 13.7 -1.1 25 9.0 ENE 19 26 10 14 1024.4 1022.8 0.0
19/10:30am 18.5 12.7 -1.3 26 8.7 E 19 28 10 15 1025.0 1023.4 0.0
19/10:00am 17.5 11.6 -0.7 29 8.0 E 20 26 11 14 1025.4 1023.8 0.0
19/09:30am 16.5 10.2 -0.7 31 7.5 E 22 33 12 18 1025.6 1024.0 0.0
19/09:00am 16.0 9.8 -0.2 33 7.1 E 22 32 12 17 1025.6 1024.0 0.0
19/08:30am 14.3 7.7 -0.5 36 6.3 E 24 37 13 20 1025.5 1023.9 0.0
19/08:00am 13.3 7.1 -0.3 39 5.8 E 22 33 12 18 1025.5 1023.9 0.0
19/07:30am 11.8 6.2 0.0 44 5.0 E 19 30 10 16 1025.5 1023.9 0.0
19/07:00am 11.0 5.4 -0.2 46 4.7 E 19 26 10 14 1025.3 1023.7 0.0
19/06:30am 10.7 5.5 -0.1 47 4.5 E 17 26 9 14 1025.2 1023.6 0.0
19/06:00am 11.0 5.4 -0.2 46 4.7 ESE 19 24 10 13 1025.1 1023.5 0.0
19/05:30am 11.3 6.1 -0.2 45 4.8 ESE 17 22 9 12 1024.9 1023.2 0.0
19/05:00am 11.8 6.1 -0.4 43 5.1 E 19 26 10 14 1024.9 1023.2 0.0
19/04:30am 12.3 6.7 -0.2 42 5.3 ESE 19 26 10 14 1024.9 1023.2 0.0
19/04:00am 12.7 7.0 -0.5 40 5.5 E 19 28 10 15 1025.0 1023.4 0.0
19/03:30am 13.1 7.4 -0.5 39 5.8 ESE 19 26 10 14 1024.9 1023.2 0.0
19/03:00am 13.4 8.1 -0.6 38 5.9 ESE 17 26 9 14 1025.1 1023.5 0.0
19/02:30am 13.8 8.1 -0.6 37 6.1 ESE 19 28 10 15 1024.9 1023.2 0.0
19/02:00am 14.2 8.3 -0.6 36 6.3 ESE 20 30 11 16 1024.7 1023.1 0.0
19/01:30am 14.5 8.8 -0.4 36 6.4 ESE 19 28 10 15 1024.6 1023.0 0.0
19/01:00am 14.5 9.6 -0.4 36 6.4 ESE 15 22 8 12 1024.5 1022.9 0.0
19/12:30am 14.6 9.3 -0.7 35 6.5 ESE 17 24 9 13 1024.5 1022.9 0.0
19/12:00am 14.7 9.3 -1.0 34 6.6 ESE 17 24 9 13 1024.5 1022.9 0.0
 
Date/Time
WST
Temp
°C
App
Temp
°C
Dew
Point
°C
Rel
Hum
%
Delta-T
°C
Wind Press
QNH
hPa
Press
MSL
hPa
Rain since
9am
mm
Dir  Spd
km/h
Gust
km/h
Spd
kts
Gust
kts
18/11:30pm 14.9 10.3 -0.8 34 6.7 ESE 13 19 7 10 1024.6 1023.0 0.0
18/11:00pm 15.3 11.1 -0.9 33 6.9 ESE 11 17 6 9 1024.9 1023.2 0.0
18/10:30pm 16.0 11.4 -1.1 31 7.4 ESE 13 17 7 9 1024.9 1023.2 0.0
18/10:00pm 16.7 12.1 -0.9 30 7.6 ESE 13 20 7 11 1025.1 1023.5 0.0
18/09:30pm 16.9 12.3 -1.2 29 7.8 ESE 13 17 7 9 1024.9 1023.2 0.0
18/09:00pm 17.5 12.9 -0.7 29 8.0 ESE 13 20 7 11 1024.9 1023.2 0.0
18/08:30pm 17.9 13.0 -0.8 28 8.2 ESE 15 20 8 11 1024.7 1023.1 0.0
18/08:00pm 18.0 13.0 -1.3 27 8.4 ESE 15 20 8 11 1024.6 1023.0 0.0
18/07:30pm 18.0 13.3 -1.8 26 8.5 SE 13 17 7 9 1024.5 1022.9 0.0
18/07:00pm 18.0 14.1 -1.8 26 8.5 SE 9 11 5 6 1024.2 1022.6 0.0
18/06:30pm 19.1 15.1 -1.9 24 9.1 ESE 9 11 5 6 1023.9 1022.3 0.0
18/06:00pm 20.6 16.3 -1.8 22 9.8 E 11 17 6 9 1023.5 1021.9 0.0
18/05:30pm 21.3 15.8 -1.9 21 10.3 E 17 22 9 12 1023.3 1021.6 0.0
18/05:00pm 22.2 15.7 -2.5 19 10.9 ESE 22 32 12 17 1023.1 1021.4 0.0
18/04:30pm 22.7 16.6 -2.1 19 11.1 ESE 20 33 11 18 1022.9 1021.2 0.0
18/04:00pm 22.9 16.1 -1.9 19 11.1 E 24 33 13 18 1022.7 1021.1 0.0
18/03:30pm 22.8 16.6 -0.6 21 10.8 E 22 37 12 20 1022.6 1021.0 0.0
18/03:00pm 23.1 16.1 -0.4 21 10.8 ESE 26 37 14 20 1022.9 1021.2 0.0
18/02:30pm 23.1 16.8 -1.1 20 11.1 ESE 22 37 12 20 1023.0 1021.3 0.0
18/02:00pm 22.3 16.2 0.2 23 10.2 E 22 32 12 17 1023.2 1021.5 0.0
18/01:30pm 22.3 16.6 0.8 24 10.1 E 20 28 11 15 1023.4 1021.8 0.0
18/01:00pm 21.8 16.3 0.4 24 9.9 E 19 30 10 16 1023.6 1022.0 0.0
18/12:30pm 21.4 15.8 1.1 26 9.5 E 20 33 11 18 1024.1 1022.5 0.0
18/12:00pm 20.7 14.8 1.6 28 9.0 E 22 33 12 18 1024.5 1022.9 0.0
18/11:30am 19.8 14.4 2.2 31 8.4 ENE 20 33 11 18 1025.2 1023.6 0.0
18/11:00am 18.9 13.2 2.7 34 7.7 E 22 33 12 18 1025.8 1024.2 0.0
18/10:30am 18.5 11.6 2.8 35 7.5 ENE 28 35 15 19 1026.4 1024.8 0.0
18/10:00am 17.9 11.5 3.4 38 6.9 E 26 37 14 20 1026.8 1025.2 0.0
18/09:30am 16.4 9.7 3.5 42 6.1 E 28 41 15 22 1027.1 1025.5 0.0
18/09:00am 15.3 9.0 3.8 46 5.4 E 26 39 14 21 1027.1 1025.5 0.0
18/08:30am 14.1 7.8 3.8 50 4.8 E 26 37 14 20 1027.0 1025.4 0.0
18/08:00am 13.2 7.3 3.8 53 4.4 E 24 35 13 19 1026.8 1025.2 0.0
18/07:30am 12.3 7.1 3.5 55 4.0 E 20 26 11 14 1026.5 1025.0 0.0
18/07:00am 11.6 6.9 3.4 57 3.7 ESE 17 26 9 14 1026.3 1024.7 0.0
18/06:30am 11.6 6.9 3.1 56 3.8 ESE 17 24 9 13 1026.2 1024.6 0.0
18/06:00am 12.1 7.0 3.1 54 4.1 ESE 19 26 10 14 1025.9 1024.3 0.0
18/05:30am 12.4 7.3 3.1 53 4.2 E 19 30 10 16 1025.7 1024.1 0.0
18/05:00am 12.8 7.7 2.9 51 4.5 E 19 28 10 15 1025.6 1024.0 0.0
18/04:30am 13.0 8.2 2.6 49 4.7 E 17 28 9 15 1025.5 1023.9 0.0
18/04:00am 13.5 7.7 2.4 47 5.0 E 22 30 12 16 1025.6 1024.0 0.0
18/03:30am 13.8 8.6 2.4 46 5.2 E 19 28 10 15 1025.6 1024.0 0.0
18/03:00am 14.2 8.4 2.1 44 5.5 E 22 32 12 17 1025.6 1024.0 0.0
18/02:30am 14.6 9.2 2.2 43 5.6 E 20 37 11 20 1025.7 1024.1 0.0
18/02:00am 14.9 9.0 1.8 41 5.9 E 22 33 12 18 1025.7 1024.1 0.0
18/01:30am 15.4 9.1 1.5 39 6.3 E 24 32 13 17 1025.8 1024.2 0.0
18/01:00am 15.2 9.8 1.0 38 6.3 E 19 33 10 18 1025.9 1024.3 0.0
18/12:30am 14.9 9.7 0.0 36 6.5 ESE 17 26 9 14 1026.0 1024.4 0.0
18/12:00am 14.7 10.2 -0.6 35 6.5 ESE 13 19 7 10 1026.1 1024.5 0.0
 
Date/Time
WST
Temp
°C
App
Temp
°C
Dew
Point
°C
Rel
Hum
%
Delta-T
°C
Wind Press
QNH
hPa
Press
MSL
hPa
Rain since
9am
mm
Dir  Spd
km/h
Gust
km/h
Spd
kts
Gust
kts
17/11:30pm 14.6 10.8 -1.1 34 6.7 ESE 9 15 5 8 1026.3 1024.7 0.0
17/11:00pm 15.5 11.3 -1.1 32 7.1 ESE 11 15 6 8 1026.3 1024.7 0.0
17/10:30pm 16.1 11.4 -1.5 30 7.5 ESE 13 17 7 9 1026.2 1024.6 0.0

Other Formats:

Comma delimited format used in spreadsheet applications
http://www.bom.gov.au/fwo/IDW60801/IDW60801.99400.axf

JavaScript Object Notation format (JSON) in row-major order
http://www.bom.gov.au/fwo/IDW60801/IDW60801.99400.json